X  Close Metar Aviation Weather Data     LYNI Nis Airport
Temperature
4°C Temperature
-1°C Dewpoint
70% Humidity



Wind
0 MPH
0 KM/H
0 M/S
0 KTS



Calm
N
Current Conditions

Mostly Cloudy Mostly Cloudy
Pressure 1018.92 (hPa) - 30.09 (inHg)
Visibility 6.2 (mile) - 10 (km)
Airport
Airport-code LYNI

Location: Nis Airport
Distance: 63 (mi)

Metar:
LYNI 012300Z 00000KT 9999 BKN060 04/M01 Q1019 NOSIG

Time: 02-02-2023 00:00 CET